Time;durP1;ratioP1;P1;durP2;ratioP2;P2;SDS_P1;SDS_P2;PMS_P1;PMS_P2;Temp;Humidity;BMP_temperature;BMP_pressure;BME280_temperature;BME280_humidity;BME280_pressure;Samples;Min_cycle;Max_cycle;Signal;HPM_P1;HPM_P2
2023/09/11 00:01:31;;;;;;;33.97;30.50;;;;;;;22.68;100.00;101258.66;5071641;28;20033;-64
2023/09/11 00:03:57;;;;;;;34.47;30.70;;;;;;;22.70;100.00;101270.38;5060172;28;20071;-63
2023/09/11 00:06:23;;;;;;;35.40;31.70;;;;;;;22.61;100.00;101269.84;5051802;28;20033;-63
2023/09/11 00:08:48;;;;;;;35.83;32.22;;;;;;;22.59;100.00;101267.38;5051634;28;20029;-63
2023/09/11 00:11:13;;;;;;;35.80;31.70;;;;;;;22.58;100.00;101257.28;5053419;28;20438;-62
2023/09/11 00:13:39;;;;;;;34.78;30.92;;;;;;;22.58;100.00;101256.50;5058042;28;20072;-63
2023/09/11 00:16:04;;;;;;;34.50;30.88;;;;;;;22.58;100.00;101250.84;5062024;28;20033;-64
2023/09/11 00:18:29;;;;;;;34.80;31.13;;;;;;;22.56;100.00;101247.59;5061305;28;20028;-63
2023/09/11 00:20:55;;;;;;;35.28;31.58;;;;;;;22.55;100.00;101248.78;5051513;28;20044;-64
2023/09/11 00:23:20;;;;;;;35.83;32.13;;;;;;;22.47;100.00;101247.88;5051283;28;20048;-64
2023/09/11 00:25:46;;;;;;;36.03;32.22;;;;;;;22.43;100.00;101244.19;5063850;28;20201;-63
2023/09/11 00:28:11;;;;;;;35.40;31.63;;;;;;;22.42;100.00;101248.19;5061241;28;20029;-63
2023/09/11 00:30:37;;;;;;;36.03;32.30;;;;;;;22.38;100.00;101242.47;5058445;28;20539;-62
2023/09/11 00:33:02;;;;;;;36.22;32.38;;;;;;;22.31;100.00;101245.19;5063369;28;20486;-63
2023/09/11 00:35:28;;;;;;;34.67;31.25;;;;;;;22.33;100.00;101241.97;5071260;28;20039;-64
2023/09/11 00:37:53;;;;;;;35.35;31.70;;;;;;;22.29;100.00;101245.53;5071334;28;20024;-64
2023/09/11 00:40:18;;;;;;;37.20;33.30;;;;;;;22.23;100.00;101241.41;5068414;28;20028;-64
2023/09/11 00:42:44;;;;;;;36.90;32.92;;;;;;;22.20;100.00;101244.19;5067789;28;20029;-64
2023/09/11 00:45:11;;;;;;;35.80;32.00;;;;;;;22.16;100.00;101246.09;5052336;28;20024;-63
2023/09/11 00:47:38;;;;;;;36.30;32.60;;;;;;;22.16;100.00;101241.31;5071254;28;20469;-63
2023/09/11 00:50:04;;;;;;;35.47;31.88;;;;;;;22.13;100.00;101236.41;5063260;28;20449;-63
2023/09/11 00:52:30;;;;;;;35.22;31.63;;;;;;;22.11;100.00;101235.97;5051534;28;20041;-64
2023/09/11 00:54:56;;;;;;;36.05;32.22;;;;;;;22.07;100.00;101233.09;5071063;28;20024;-63
2023/09/11 00:57:22;;;;;;;37.38;33.40;;;;;;;22.03;100.00;101240.69;5071003;28;20035;-62
2023/09/11 00:59:51;;;;;;;38.53;34.33;;;;;;;21.99;100.00;101236.19;5071061;28;20024;-62
2023/09/11 01:02:17;;;;;;;37.47;33.58;;;;;;;21.90;100.00;101233.59;5063479;28;20033;-62
2023/09/11 01:04:43;;;;;;;36.63;32.72;;;;;;;21.84;100.00;101233.09;5051540;28;20040;-63
2023/09/11 01:07:09;;;;;;;38.00;34.05;;;;;;;21.81;100.00;101239.50;5070970;28;20115;-64
2023/09/11 01:09:34;;;;;;;37.17;33.40;;;;;;;21.76;100.00;101220.06;5071053;28;20108;-63
2023/09/11 01:12:00;;;;;;;37.42;33.33;;;;;;;21.76;100.00;101231.34;5060314;28;20094;-63
2023/09/11 01:14:26;;;;;;;36.88;33.03;;;;;;;21.76;100.00;101228.53;5063676;28;20086;-63
2023/09/11 01:17:05;;;;;;;36.80;32.83;;;;;;;21.76;100.00;101234.16;5062820;28;20040;-63
2023/09/11 01:19:52;;;;;;;35.35;31.63;;;;;;;21.75;100.00;101224.06;5054740;28;20091;-63
2023/09/11 01:22:53;;;;;;;37.47;33.67;;;;;;;21.67;100.00;101225.97;5061616;28;20126;-64
2023/09/11 01:25:52;;;;;;;37.10;33.20;;;;;;;21.66;100.00;101232.78;5070746;28;20052;-63
2023/09/11 01:28:55;;;;;;;36.08;32.20;;;;;;;21.65;100.00;101228.34;5070988;28;20028;-63
2023/09/11 01:31:23;;;;;;;36.25;31.67;;;;;;;21.59;100.00;101230.63;5070549;28;20053;-63
2023/09/11 01:33:53;;;;;;;34.38;30.77;;;;;;;21.52;100.00;101233.28;5070998;28;20432;-62
2023/09/11 01:36:18;;;;;;;35.08;31.38;;;;;;;21.47;100.00;101228.78;5071146;28;20036;-63
2023/09/11 01:38:44;;;;;;;34.45;30.08;;;;;;;21.47;100.00;101230.75;5074334;28;20028;-63
2023/09/11 01:41:11;;;;;;;34.28;30.73;;;;;;;21.47;100.00;101227.94;5073276;28;20175;-62
2023/09/11 01:43:37;;;;;;;33.55;30.05;;;;;;;21.44;100.00;101223.09;5074352;28;20690;-62
2023/09/11 01:46:05;;;;;;;34.55;30.98;;;;;;;21.37;100.00;101220.94;5073009;28;20043;-62
2023/09/11 01:48:32;;;;;;;34.05;30.48;;;;;;;21.33;100.00;101220.03;5064918;28;20037;-61
2023/09/11 01:50:58;;;;;;;32.78;29.27;;;;;;;21.32;100.00;101224.03;5054250;28;20021;-62
2023/09/11 01:53:24;;;;;;;33.75;30.15;;;;;;;21.32;100.00;101216.44;5054130;28;20079;-63
2023/09/11 01:55:51;;;;;;;33.60;30.10;;;;;;;21.24;100.00;101220.28;5054229;28;20370;-63
2023/09/11 01:58:16;;;;;;;33.72;30.33;;;;;;;21.24;100.00;101219.44;5061974;28;20036;-62
2023/09/11 02:00:41;;;;;;;33.53;29.98;;;;;;;21.21;100.00;101218.19;5074106;28;20021;-63
2023/09/11 02:03:06;;;;;;;32.03;28.60;;;;;;;21.18;100.00;101216.94;5074112;28;20119;-63
2023/09/11 02:05:32;;;;;;;34.35;29.67;;;;;;;21.13;100.00;101217.22;5074155;28;20021;-63
2023/09/11 02:07:57;;;;;;;33.97;28.88;;;;;;;21.12;100.00;101212.78;5073958;28;20146;-63
2023/09/11 02:10:22;;;;;;;32.83;29.40;;;;;;;21.11;100.00;101210.34;5059083;28;20074;-64
2023/09/11 02:12:48;;;;;;;32.45;28.92;;;;;;;21.08;100.00;101211.91;5057716;28;20032;-63
2023/09/11 02:15:13;;;;;;;32.35;28.45;;;;;;;21.07;100.00;101207.47;5064259;28;20064;-63
2023/09/11 02:17:38;;;;;;;33.33;29.83;;;;;;;21.00;100.00;101210.94;5053693;28;20060;-62
2023/09/11 02:20:05;;;;;;;33.05;29.38;;;;;;;20.99;100.00;101216.94;5053703;28;20384;-63
2023/09/11 02:22:30;;;;;;;32.95;29.40;;;;;;;20.94;100.00;101206.81;5073578;28;20343;-63
2023/09/11 02:24:55;;;;;;;35.00;30.25;;;;;;;20.90;100.00;101200.28;5073535;28;20049;-62
2023/09/11 02:27:21;;;;;;;33.30;29.77;;;;;;;20.84;100.00;101202.56;5073699;28;20032;-63
2023/09/11 02:29:46;;;;;;;33.53;29.52;;;;;;;20.79;100.00;101197.25;5073517;28;20099;-62
2023/09/11 02:32:11;;;;;;;33.05;29.48;;;;;;;20.79;100.00;101202.03;5057835;28;20052;-63
2023/09/11 02:34:37;;;;;;;34.50;30.90;;;;;;;20.72;100.00;101194.25;5062294;28;20035;-63
2023/09/11 02:37:02;;;;;;;32.83;29.42;;;;;;;20.66;100.00;101198.50;5073115;28;20043;-63
2023/09/11 02:39:28;;;;;;;33.80;30.30;;;;;;;20.61;100.00;101193.19;5073162;28;20056;-63
2023/09/11 02:41:53;;;;;;;34.05;30.65;;;;;;;20.55;100.00;101193.44;5073204;28;20028;-63
2023/09/11 02:44:19;;;;;;;34.13;30.48;;;;;;;20.50;100.00;101192.94;5056219;28;20076;-62
2023/09/11 02:46:44;;;;;;;33.97;30.38;;;;;;;20.49;100.00;101191.31;5053443;28;20445;-63
2023/09/11 02:49:09;;;;;;;34.90;31.30;;;;;;;20.43;100.00;101193.59;5054914;28;20453;-63
2023/09/11 02:51:35;;;;;;;33.85;30.25;;;;;;;20.39;100.00;101189.88;5053933;28;20032;-63
2023/09/11 02:54:00;;;;;;;34.17;30.60;;;;;;;20.44;100.00;101191.59;5072868;28;20020;-63
2023/09/11 02:56:26;;;;;;;34.90;31.20;;;;;;;20.36;100.00;101188.63;5057346;28;20032;-63
2023/09/11 02:58:51;;;;;;;34.05;30.40;;;;;;;20.37;100.00;101187.44;5052879;28;20033;-63
2023/09/11 03:01:17;;;;;;;34.38;30.67;;;;;;;20.34;100.00;101193.78;5052926;28;20453;-64
2023/09/11 03:03:43;;;;;;;33.72;30.23;;;;;;;20.26;100.00;101187.16;5070723;28;20029;-63
2023/09/11 03:06:08;;;;;;;34.55;30.85;;;;;;;20.25;100.00;101182.75;5072812;28;20020;-63
2023/09/11 03:08:33;;;;;;;34.25;30.75;;;;;;;20.19;100.00;101187.00;5072713;28;20024;-63
2023/09/11 03:11:09;;;;;;;35.05;31.45;;;;;;;20.19;100.00;101178.56;5072668;28;20383;-62
2023/09/11 03:13:38;;;;;;;34.72;31.02;;;;;;;20.09;100.00;101176.31;5070925;28;20041;-63
2023/09/11 03:16:10;;;;;;;35.30;31.55;;;;;;;20.09;100.00;101176.31;5057548;28;20503;-64
2023/09/11 03:18:36;;;;;;;34.95;31.35;;;;;;;20.03;100.00;101172.16;5070053;28;20029;-63
2023/09/11 03:21:03;;;;;;;34.55;30.92;;;;;;;20.04;100.00;101179.41;5059604;28;20086;-64
2023/09/11 03:23:28;;;;;;;34.35;30.73;;;;;;;19.97;100.00;101163.19;5052797;28;20040;-63
2023/09/11 03:25:54;;;;;;;35.45;31.70;;;;;;;19.94;100.00;101166.72;5052765;28;20033;-64
2023/09/11 03:28:19;;;;;;;35.30;31.80;;;;;;;19.88;100.00;101165.38;5063488;28;20430;-64
2023/09/11 03:30:45;;;;;;;36.30;32.58;;;;;;;19.86;100.00;101162.94;5072069;28;20545;-64
2023/09/11 03:33:10;;;;;;;35.42;31.65;;;;;;;19.83;100.00;101157.22;5071818;28;20056;-64
2023/09/11 03:35:35;;;;;;;36.47;32.75;;;;;;;19.81;100.00;101160.34;5072114;28;20031;-62
2023/09/11 03:38:00;;;;;;;35.70;31.95;;;;;;;19.79;100.00;101157.09;5072037;28;20396;-63
2023/09/11 03:40:28;;;;;;;36.63;32.83;;;;;;;19.74;100.00;101154.56;5072255;28;20102;-63
2023/09/11 03:42:53;;;;;;;35.05;31.27;;;;;;;19.72;100.00;101154.94;5072521;28;20115;-63
2023/09/11 03:45:18;;;;;;;34.80;31.25;;;;;;;19.74;100.00;101151.75;5058626;28;20112;-64
2023/09/11 03:47:44;;;;;;;35.88;32.10;;;;;;;19.75;100.00;101145.78;5052117;28;20033;-62
2023/09/11 03:50:09;;;;;;;34.72;31.05;;;;;;;19.78;100.00;101155.47;5061194;28;20021;-63
2023/09/11 03:52:35;;;;;;;36.03;32.20;;;;;;;19.76;100.00;101147.41;5052084;28;20033;-63
2023/09/11 03:55:00;;;;;;;35.30;31.70;;;;;;;19.75;100.00;101139.34;5052056;28;20086;-63
2023/09/11 03:57:25;;;;;;;36.25;32.42;;;;;;;19.72;100.00;101135.28;5071372;28;20020;-63
2023/09/11 03:59:51;;;;;;;34.30;30.63;;;;;;;19.74;100.00;101130.09;5071203;28;20084;-64
2023/09/11 04:02:16;;;;;;;34.38;30.90;;;;;;;19.75;100.00;101125.31;5071602;28;20027;-63
2023/09/11 04:04:41;;;;;;;33.88;30.20;;;;;;;19.77;100.00;101122.97;5060786;28;20021;-63
2023/09/11 04:07:07;;;;;;;34.88;31.15;;;;;;;19.73;100.00;101117.28;5071522;28;20435;-62
2023/09/11 04:09:32;;;;;;;34.50;30.77;;;;;;;19.70;100.00;101115.19;5067213;28;20477;-62
2023/09/11 04:12:00;;;;;;;33.35;29.85;;;;;;;19.71;100.00;101122.44;5070639;28;20029;-63
2023/09/11 04:14:25;;;;;;;33.78;30.17;;;;;;;19.69;100.00;101121.16;5058094;28;20036;-64
2023/09/11 04:16:50;;;;;;;33.50;29.90;;;;;;;19.63;100.00;101118.63;5051642;28;20486;-63
2023/09/11 04:19:16;;;;;;;34.03;30.52;;;;;;;19.61;100.00;101120.16;5051586;28;20028;-63
2023/09/11 04:21:41;;;;;;;34.20;30.50;;;;;;;19.57;100.00;101120.06;5051643;28;20021;-63
2023/09/11 04:24:12;;;;;;;34.85;31.15;;;;;;;19.56;100.00;101117.63;5061356;28;20082;-63
2023/09/11 04:26:39;;;;;;;33.78;30.27;;;;;;;19.56;100.00;101112.00;5071729;28;20436;-64
2023/09/11 04:29:05;;;;;;;33.65;30.08;;;;;;;19.53;100.00;101115.56;5071431;28;20024;-63
2023/09/11 04:31:30;;;;;;;34.13;29.85;;;;;;;19.50;100.00;101117.09;5061135;28;20060;-63
2023/09/11 04:33:55;;;;;;;34.20;29.35;;;;;;;19.48;100.00;101109.03;5071505;28;20025;-62
2023/09/11 04:36:21;;;;;;;33.03;29.55;;;;;;;19.50;100.00;101108.69;5057979;28;20049;-63
2023/09/11 04:38:46;;;;;;;33.33;29.15;;;;;;;19.53;100.00;101107.13;5062553;28;20511;-61
2023/09/11 04:41:11;;;;;;;32.75;29.35;;;;;;;19.49;100.00;101107.84;5070526;28;20118;-63
2023/09/11 04:43:37;;;;;;;31.60;28.20;;;;;;;19.46;100.00;101102.94;5061196;28;20104;-63
2023/09/11 04:46:02;;;;;;;32.65;29.15;;;;;;;19.45;100.00;101111.72;5051285;28;20032;-63
2023/09/11 04:48:27;;;;;;;31.58;28.17;;;;;;;19.45;100.00;101106.94;5051220;28;20024;-62
2023/09/11 04:50:53;;;;;;;32.17;28.67;;;;;;;19.41;100.00;101110.84;5051485;28;20025;-62
2023/09/11 04:53:18;;;;;;;31.80;28.42;;;;;;;19.41;100.00;101110.84;5058760;28;20125;-63
2023/09/11 04:55:44;;;;;;;32.83;29.15;;;;;;;19.40;100.00;101106.41;5052583;28;20480;-62
2023/09/11 04:58:09;;;;;;;31.10;27.77;;;;;;;19.39;100.00;101108.38;5051107;28;20021;-62
2023/09/11 05:00:34;;;;;;;32.45;28.90;;;;;;;19.40;100.00;101114.81;5051043;28;20033;-62
2023/09/11 05:02:59;;;;;;;31.95;28.05;;;;;;;19.40;100.00;101115.63;5051127;28;20021;-62
2023/09/11 05:05:25;;;;;;;32.95;28.42;;;;;;;19.41;100.00;101124.88;5051399;28;20095;-65
2023/09/11 05:07:50;;;;;;;31.35;27.95;;;;;;;19.42;100.00;101126.47;5065144;28;20040;-63
2023/09/11 05:10:16;;;;;;;31.17;26.90;;;;;;;19.44;100.00;101118.50;5061009;28;20028;-63
2023/09/11 05:12:41;;;;;;;32.00;28.20;;;;;;;19.46;100.00;101125.38;5066375;28;20029;-63
2023/09/11 05:15:07;;;;;;;31.25;26.65;;;;;;;19.47;100.00;101120.59;5065525;28;20130;-63
2023/09/11 05:17:32;;;;;;;29.20;25.77;;;;;;;19.46;100.00;101118.97;5054731;28;20025;-62
2023/09/11 05:19:58;;;;;;;30.25;25.92;;;;;;;19.47;100.00;101115.81;5055046;28;20025;-63
2023/09/11 05:22:23;;;;;;;29.67;24.83;;;;;;;19.48;100.00;101117.44;5054837;28;20443;-63
2023/09/11 05:24:48;;;;;;;29.95;25.65;;;;;;;19.47;100.00;101115.81;5054804;28;20033;-62
2023/09/11 05:27:14;;;;;;;29.63;26.02;;;;;;;19.48;100.00;101125.84;5062841;28;20135;-61
2023/09/11 05:29:39;;;;;;;29.63;24.80;;;;;;;19.54;100.00;101125.59;5069397;28;20028;-62
2023/09/11 05:32:04;;;;;;;30.10;24.95;;;;;;;19.54;100.00;101117.97;5074448;28;20048;-64
2023/09/11 05:34:30;;;;;;;30.35;25.35;;;;;;;19.62;100.00;101125.41;5074515;28;20036;-64
2023/09/11 05:36:55;;;;;;;28.35;24.45;;;;;;;19.66;100.00;101127.50;5063580;28;20025;-63
2023/09/11 05:39:20;;;;;;;29.10;23.80;;;;;;;19.67;100.00;101124.31;5054345;28;20044;-63
2023/09/11 05:41:46;;;;;;;28.52;24.65;;;;;;;19.67;100.00;101121.50;5062793;28;20040;-63
2023/09/11 05:44:12;;;;;;;27.77;23.88;;;;;;;19.70;100.00;101123.59;5071987;28;20024;-64
2023/09/11 05:46:37;;;;;;;29.25;24.45;;;;;;;19.71;100.00;101128.03;5057241;28;20480;-63
2023/09/11 05:49:02;;;;;;;27.30;23.63;;;;;;;19.75;100.00;101137.34;5054360;28;20032;-63
2023/09/11 05:51:28;;;;;;;28.25;23.50;;;;;;;19.81;100.00;101140.72;5054064;28;20025;-63
2023/09/11 05:53:53;;;;;;;29.65;24.65;;;;;;;19.82;100.00;101144.34;5066087;28;20559;-62
2023/09/11 05:56:18;;;;;;;28.70;24.63;;;;;;;19.83;100.00;101146.78;5073904;28;20024;-63
2023/09/11 05:58:44;;;;;;;31.85;24.60;;;;;;;19.86;100.00;101139.66;5073855;28;20029;-62
2023/09/11 06:01:09;;;;;;;30.95;24.00;;;;;;;19.89;100.00;101145.34;5072837;28;20024;-61
2023/09/11 06:03:34;;;;;;;29.98;25.10;;;;;;;19.92;100.00;101144.63;5055017;28;20500;-63
2023/09/11 06:06:00;;;;;;;31.50;24.73;;;;;;;19.94;100.00;101147.91;5073861;28;20031;-62
2023/09/11 06:08:25;;;;;;;29.38;23.95;;;;;;;19.97;100.00;101146.34;5073811;28;20029;-62
2023/09/11 06:10:51;;;;;;;32.13;24.48;;;;;;;19.99;100.00;101144.00;5064667;28;20033;-62
2023/09/11 06:13:16;;;;;;;29.50;24.38;;;;;;;20.02;100.00;101153.69;5053762;28;20414;-61
2023/09/11 06:15:41;;;;;;;32.72;24.45;;;;;;;20.05;100.00;101152.97;5053212;28;20037;-62
2023/09/11 06:18:07;;;;;;;29.17;24.63;;;;;;;20.10;100.00;101156.31;5052739;28;20029;-63
2023/09/11 06:20:32;;;;;;;29.50;25.40;;;;;;;20.15;100.00;101160.00;5052757;28;20029;-64
2023/09/11 06:22:57;;;;;;;31.60;25.42;;;;;;;20.19;100.00;101156.09;5055668;28;20036;-62
2023/09/11 06:25:23;;;;;;;31.20;25.08;;;;;;;20.26;100.00;101169.50;5071900;28;20017;-62
2023/09/11 06:27:49;;;;;;;30.10;24.67;;;;;;;20.28;100.00;101164.34;5072084;28;20047;-63
2023/09/11 06:30:14;;;;;;;29.55;24.05;;;;;;;20.32;100.00;101164.44;5071664;28;20048;-62
2023/09/11 06:32:39;;;;;;;30.60;24.80;;;;;;;20.41;100.00;101162.22;5058334;28;20021;-62
2023/09/11 06:35:05;;;;;;;30.08;24.48;;;;;;;20.39;100.00;101157.00;5071302;28;20033;-62
2023/09/11 06:37:31;;;;;;;30.70;23.17;;;;;;;20.46;100.00;101161.13;5072262;28;20040;-62
2023/09/11 06:39:56;;;;;;;29.67;24.48;;;;;;;20.46;100.00;101164.75;5073295;28;20055;-62
2023/09/11 06:42:24;;;;;;;30.67;24.67;;;;;;;20.55;100.00;101164.53;5063774;28;20024;-63
2023/09/11 06:44:51;;;;;;;30.20;24.77;;;;;;;20.68;100.00;101162.41;5053294;28;20028;-62
2023/09/11 06:47:16;;;;;;;31.70;24.85;;;;;;;20.74;100.00;101166.59;5053153;28;20122;-63
2023/09/11 06:49:41;;;;;;;28.85;24.80;;;;;;;20.86;100.00;101158.03;5053492;28;20071;-65
2023/09/11 06:52:07;;;;;;;28.83;24.40;;;;;;;20.94;100.00;101161.81;5053161;28;20500;-62
2023/09/11 06:54:32;;;;;;;29.50;24.15;;;;;;;21.03;100.00;101156.78;5053140;28;20053;-65
2023/09/11 06:56:57;;;;;;;31.48;25.25;;;;;;;21.06;100.00;101155.22;5053215;28;20020;-65
2023/09/11 06:59:23;;;;;;;30.08;24.38;;;;;;;21.13;100.00;101155.34;5072120;28;20034;-66
2023/09/11 07:01:48;;;;;;;31.90;25.23;;;;;;;21.13;100.00;101166.59;5055406;28;20500;-64
2023/09/11 07:04:14;;;;;;;30.13;24.92;;;;;;;21.11;100.00;101160.53;5061050;28;20142;-64
2023/09/11 07:06:40;;;;;;;31.02;24.63;;;;;;;21.15;100.00;101166.25;5053008;28;20039;-64
2023/09/11 07:09:06;;;;;;;29.88;23.63;;;;;;;21.13;100.00;101162.97;5051843;28;20032;-63
2023/09/11 07:11:32;;;;;;;30.20;24.23;;;;;;;21.09;100.00;101164.91;5051851;28;20039;-64
2023/09/11 07:13:57;;;;;;;29.75;23.08;;;;;;;21.13;100.00;101157.34;5065552;28;20028;-66
2023/09/11 07:16:24;;;;;;;28.67;22.80;;;;;;;21.14;100.00;101159.78;5062158;28;20021;-65
2023/09/11 07:18:51;;;;;;;26.85;21.88;;;;;;;21.20;100.00;101154.69;5058509;28;20117;-65
2023/09/11 07:21:16;;;;;;;26.15;22.10;;;;;;;21.30;100.00;101161.72;5051622;28;20032;-65
2023/09/11 07:23:42;;;;;;;26.80;22.23;;;;;;;21.33;100.00;101153.34;5051806;28;20021;-64
2023/09/11 07:26:07;;;;;;;30.35;21.95;;;;;;;21.38;100.00;101155.03;5051332;28;20029;-65
2023/09/11 07:28:51;;;;;;;29.75;22.08;;;;;;;21.45;100.00;101154.31;5051821;28;20053;-65
2023/09/11 07:31:16;;;;;;;;;;;;;;;21.57;100.00;101148.53;5052050;28;20485;-66
2023/09/11 07:33:41;;;;;;;30.00;21.90;;;;;;;21.61;100.00;101149.44;5052623;28;19959;-65
2023/09/11 07:36:07;;;;;;;28.73;21.38;;;;;;;21.64;100.00;101142.25;5062277;28;20287;-66
2023/09/11 07:38:33;;;;;;;28.50;21.92;;;;;;;21.63;100.00;101154.69;5051527;28;20381;-65
2023/09/11 07:40:58;;;;;;;28.70;22.20;;;;;;;21.65;100.00;101157.97;5051609;28;20587;-65
2023/09/11 07:43:24;;;;;;;29.10;22.00;;;;;;;21.69;100.00;101160.84;5051091;28;20570;-65
2023/09/11 07:45:49;;;;;;;28.52;22.52;;;;;;;21.71;100.00;101167.72;5051596;28;20025;-65
2023/09/11 07:48:15;;;;;;;29.13;22.42;;;;;;;21.78;100.00;101161.38;5057006;28;20064;-65
2023/09/11 07:50:40;;;;;;;29.63;22.48;;;;;;;21.87;100.00;101161.94;5059287;28;20025;-65
2023/09/11 07:53:05;;;;;;;29.90;22.17;;;;;;;21.91;99.67;101165.66;5067627;28;20028;-65
2023/09/11 07:55:36;;;;;;;26.83;22.00;;;;;;;22.03;99.32;101159.00;5056073;28;20037;-66
2023/09/11 07:58:01;;;;;;;31.75;22.17;;;;;;;22.15;99.01;101166.41;5058632;28;20056;-67
2023/09/11 08:00:30;;;;;;;26.77;21.70;;;;;;;22.23;98.30;101173.78;5067052;28;20072;-66
2023/09/11 08:02:56;;;;;;;27.45;21.20;;;;;;;22.34;98.35;101173.16;5059775;28;20102;-65
2023/09/11 08:05:21;;;;;;;26.60;21.55;;;;;;;22.40;97.26;101168.81;5053126;28;20063;-65
2023/09/11 08:07:46;;;;;;;28.05;21.98;;;;;;;22.45;97.05;101168.50;5050872;28;20108;-65
2023/09/11 08:10:12;;;;;;;29.67;21.80;;;;;;;22.53;95.45;101173.06;5050730;28;20114;-65
2023/09/11 08:12:37;;;;;;;28.27;22.30;;;;;;;22.63;95.22;101190.50;5066359;28;20063;-64
2023/09/11 08:15:03;;;;;;;28.70;22.92;;;;;;;22.66;94.24;101190.56;5070359;28;20111;-65
2023/09/11 08:17:29;;;;;;;28.23;23.38;;;;;;;22.68;94.26;101188.16;5069074;28;20460;-65
2023/09/11 08:19:54;;;;;;;29.13;23.42;;;;;;;22.77;94.77;101187.06;5055284;28;20048;-66
2023/09/11 08:22:19;;;;;;;28.83;22.45;;;;;;;22.82;94.27;101192.38;5063942;28;20083;-65
2023/09/11 08:24:45;;;;;;;29.92;22.73;;;;;;;22.86;94.25;101190.41;5061896;28;20115;-66
2023/09/11 08:27:10;;;;;;;30.65;24.05;;;;;;;22.94;94.36;101188.50;5065730;28;20025;-65
2023/09/11 08:29:35;;;;;;;28.58;23.65;;;;;;;22.98;93.72;101184.53;5070777;28;20031;-65
2023/09/11 08:32:01;;;;;;;30.35;22.83;;;;;;;23.06;93.64;101182.59;5066098;28;20448;-65
2023/09/11 08:34:26;;;;;;;29.48;23.20;;;;;;;23.12;93.16;101195.19;5065885;28;20417;-65
2023/09/11 08:36:52;;;;;;;30.23;22.85;;;;;;;23.19;93.41;101188.84;5069600;28;20452;-66
2023/09/11 08:39:17;;;;;;;28.27;23.40;;;;;;;23.26;93.21;101176.81;5052434;28;20120;-66
2023/09/11 08:41:44;;;;;;;29.35;24.40;;;;;;;23.36;92.73;101187.41;5048996;28;20179;-65
2023/09/11 08:44:10;;;;;;;30.00;25.30;;;;;;;23.40;91.79;101188.28;5050783;28;20032;-67
2023/09/11 08:46:37;;;;;;;29.65;24.77;;;;;;;23.42;91.13;101185.06;5053506;28;20036;-65
2023/09/11 08:49:10;;;;;;;31.85;23.40;;;;;;;23.52;91.13;101181.53;5067597;28;20470;-65
2023/09/11 08:51:46;;;;;;;30.17;24.33;;;;;;;23.60;91.10;101179.59;5052602;28;20039;-64
2023/09/11 08:54:11;;;;;;;30.00;23.17;;;;;;;23.72;90.56;101184.16;5060397;28;20116;-65
2023/09/11 08:56:40;;;;;;;29.35;22.48;;;;;;;23.80;90.15;101185.84;5060768;28;20151;-64
2023/09/11 08:59:07;;;;;;;29.20;23.92;;;;;;;23.90;89.40;101182.31;5052352;28;20024;-64
2023/09/11 09:01:32;;;;;;;30.45;24.27;;;;;;;24.01;88.87;101184.44;5049935;28;20460;-65
2023/09/11 09:03:59;;;;;;;32.65;24.00;;;;;;;24.09;88.50;101192.56;5049858;28;20025;-65
2023/09/11 09:06:26;;;;;;;28.55;23.30;;;;;;;24.20;88.23;101198.31;5050037;28;20044;-65
2023/09/11 09:08:52;;;;;;;29.90;23.33;;;;;;;24.30;87.81;101196.75;5049860;28;20040;-65
2023/09/11 09:11:20;;;;;;;29.92;23.73;;;;;;;24.39;87.00;101196.44;5049597;28;20037;-65
2023/09/11 09:13:45;;;;;;;28.85;23.73;;;;;;;24.47;86.78;101186.78;5049548;28;20031;-67
2023/09/11 09:16:11;;;;;;;28.42;22.80;;;;;;;24.55;85.80;101182.78;5048415;28;20111;-66
2023/09/11 09:18:36;;;;;;;31.25;23.17;;;;;;;24.65;85.44;101184.06;5051595;28;20029;-64
2023/09/11 09:21:04;;;;;;;29.98;23.00;;;;;;;24.73;84.47;101176.44;5069939;28;20483;-66
2023/09/11 09:23:35;;;;;;;28.08;20.85;;;;;;;24.83;80.70;101181.34;5069769;28;20484;-65
2023/09/11 09:26:08;;;;;;;29.27;21.90;;;;;;;24.97;80.99;101179.81;5069548;28;20032;-66
2023/09/11 09:28:34;;;;;;;29.13;23.23;;;;;;;25.05;82.57;101185.09;5069835;28;20028;-66
2023/09/11 09:31:00;;;;;;;27.33;22.50;;;;;;;25.11;82.36;101185.50;5069320;28;20048;-66
2023/09/11 09:33:26;;;;;;;25.80;21.10;;;;;;;25.15;80.27;101189.19;5069607;28;20031;-66
2023/09/11 09:35:51;;;;;;;27.10;20.92;;;;;;;25.22;80.38;101191.22;5068340;28;20024;-66
2023/09/11 09:38:20;;;;;;;27.40;21.30;;;;;;;25.27;80.02;101182.34;5069425;28;20122;-65
2023/09/11 09:40:46;;;;;;;26.67;20.92;;;;;;;25.42;81.57;101180.38;5069534;28;20028;-66
2023/09/11 09:43:18;;;;;;;26.73;19.25;;;;;;;25.47;77.58;101187.66;5069615;28;20082;-66
2023/09/11 09:45:44;;;;;;;24.95;18.95;;;;;;;25.55;75.70;101192.13;5052289;28;20072;-67
2023/09/11 09:48:12;;;;;;;26.23;18.38;;;;;;;25.68;74.65;101198.22;5051344;28;20053;-66
2023/09/11 09:50:59;;;;;;;25.05;17.60;;;;;;;25.76;74.05;101190.56;5050889;28;20028;-65
2023/09/11 09:53:27;;;;;;;26.35;19.58;;;;;;;25.84;73.53;101190.13;5069609;28;20116;-66
2023/09/11 09:55:58;;;;;;;28.92;21.67;;;;;;;25.95;77.68;101195.00;5068117;28;20024;-66
2023/09/11 09:58:27;;;;;;;29.60;22.33;;;;;;;25.99;78.59;101187.31;5072215;28;20079;-67
2023/09/11 10:01:06;;;;;;;24.00;18.00;;;;;;;26.00;75.13;101177.59;5073753;28;20032;-67
2023/09/11 10:03:39;;;;;;;26.55;18.33;;;;;;;26.06;74.01;101181.63;5070523;28;20029;-66
2023/09/11 10:06:19;;;;;;;23.50;18.02;;;;;;;26.11;73.87;101177.63;5051655;28;20029;-66
2023/09/11 10:08:46;;;;;;;26.67;18.48;;;;;;;26.11;71.38;101175.59;5052719;28;20524;-65
2023/09/11 10:11:28;;;;;;;24.40;17.00;;;;;;;26.23;72.57;101182.88;5056895;28;20036;-66
2023/09/11 10:13:56;;;;;;;24.13;17.73;;;;;;;26.21;71.26;101193.03;5068281;28;20041;-66
2023/09/11 10:16:23;;;;;;;25.23;18.05;;;;;;;26.19;72.43;101187.72;5059398;28;20024;-66
2023/09/11 10:18:49;;;;;;;22.88;17.35;;;;;;;26.28;71.05;101187.34;5062366;28;20029;-67
2023/09/11 10:21:18;;;;;;;25.60;17.08;;;;;;;26.32;70.28;101185.28;5052707;28;20483;-66
2023/09/11 10:23:43;;;;;;;23.65;17.08;;;;;;;26.42;69.02;101181.63;5052950;28;20475;-67
2023/09/11 10:26:31;;;;;;;23.85;18.17;;;;;;;26.49;69.52;101186.47;5051328;28;20029;-66
2023/09/11 10:29:03;;;;;;;22.77;16.40;;;;;;;26.59;70.13;101191.31;5058718;28;20041;-66
2023/09/11 10:31:39;;;;;;;25.63;19.63;;;;;;;26.63;71.32;101185.63;5070967;28;20495;-66
2023/09/11 10:34:07;;;;;;;23.92;17.35;;;;;;;26.74;71.09;101171.41;5072256;28;20041;-67
2023/09/11 10:36:37;;;;;;;25.38;18.00;;;;;;;26.79;69.55;101165.34;5059142;28;20078;-67
2023/09/11 10:39:04;;;;;;;25.20;18.10;;;;;;;26.83;69.70;101176.69;5052300;28;20107;-66
2023/09/11 10:41:30;;;;;;;25.17;18.63;;;;;;;26.78;68.75;101170.19;5052375;28;20028;-66
2023/09/11 10:43:56;;;;;;;23.52;17.80;;;;;;;26.78;68.57;101166.56;5052173;28;20036;-67
2023/09/11 10:46:21;;;;;;;25.02;17.83;;;;;;;26.83;68.96;101171.81;5068316;28;20086;-67
2023/09/11 10:48:47;;;;;;;24.45;18.13;;;;;;;26.81;68.58;101165.75;5066023;28;20036;-64
2023/09/11 10:51:14;;;;;;;23.38;17.10;;;;;;;26.82;68.00;101173.03;5056923;28;20148;-65
2023/09/11 10:53:41;;;;;;;24.65;18.35;;;;;;;26.84;68.14;101167.75;5069957;28;20147;-67
2023/09/11 10:56:07;;;;;;;25.13;18.20;;;;;;;26.83;67.27;101171.81;5069696;28;20040;-66
2023/09/11 10:58:34;;;;;;;24.77;17.55;;;;;;;26.89;67.48;101163.66;5050553;28;20056;-65
2023/09/11 11:00:59;;;;;;;22.83;16.63;;;;;;;26.96;66.60;101166.50;5052055;28;20033;-67
2023/09/11 11:03:27;;;;;;;21.23;15.85;;;;;;;27.07;66.98;101169.28;5052375;28;20017;-67